Cornerville, Arkansas
Current Conditions -  °F | °C
As of 1:53 AM on Friday 19 Dec 2014 (Local Time) from KPBF Reporting Station
Haze Haze  
Wind Chill: 37°   Ceiling: 500
Heat Index: 42°   Visibility: 6mi
Dew Point: 40°   Wind: 8mph
Humidity: 92%   Direction: 20°NNE
Pressure: 30.2"   Gusts: NA
Location:  33.924°N, 91.8685°W
Report Text: KPBF 190753Z AUTO 02007KT 6SM BR OVC005 06/04 A3020 RMK AO2 SLP226 T00560044
Loading
Personal Weather Stations






























Interactive Weather Map New forecast layout! Learn more

10-Day Weather Forecast

Advertisements
Track Severe Weather on mobile